KEBA

Elbert County-Patz Field Airport

Elberton, Georgia, USA
METAR KEBA 230935Z AUTO 00000KT 10SM SCT049 08/06 A3023 RMK AO2 T00800061
Observed Flight Rules
Oct-23 @ 09:35 UTC (28 minutes ago) Visual Flight Rules
Visibility Clouds
10 miles
  • Scattered at 4,900' AGL
Temperatures Readings
Current 8°C / 46°F
Dewpoint 6°C / 43°F
Humidity 87%
Altimeter 30.23" Hg
Pressure 1024 hPa
Elevation 184
METAR KEBA 230935Z AUTO 00000KT 10SM SCT049 08/06 A3023 RMK AO2 T00800061
Observed Flight Rules
Oct-23 @ 09:35 UTC
(28 minutes ago)
VFR
Clouds
  • Scattered at 4,900' AGL
Temperature Dewpoint
8°C / 46°F 6°C / 43°F
Humidity Altimeter Pressure
87% 30.23" Hg 1024 hPa